createdAt,value
2024-01-20T00:00:33.698Z,102186.97
2024-01-20T00:03:05.834Z,102188.16
2024-01-20T00:05:38.032Z,102195.28
2024-01-20T00:08:10.304Z,102190.22
2024-01-20T00:10:42.531Z,102189.31
2024-01-20T00:13:15.384Z,102193.91
2024-01-20T00:15:47.670Z,102195.16
2024-01-20T00:18:20.826Z,102190.22
2024-01-20T00:20:53.254Z,102189.84
2024-01-20T00:23:25.576Z,102192.13
2024-01-20T00:25:57.772Z,102196.63
2024-01-20T00:28:30.053Z,102196.69
2024-01-20T00:31:02.255Z,102200.31
2024-01-20T00:33:34.835Z,102200.81
2024-01-20T00:36:07.310Z,102199.34
2024-01-20T00:38:40.740Z,102190.34
2024-01-20T00:41:13.105Z,102206.44
2024-01-20T00:43:45.371Z,102207.59
2024-01-20T00:46:17.513Z,102208.34
2024-01-20T00:48:49.695Z,102217.63
2024-01-20T00:51:21.850Z,102218.91
2024-01-20T00:53:54.034Z,102220.91
2024-01-20T00:56:26.269Z,102219.41
2024-01-20T00:58:58.509Z,102209.59
2024-01-20T01:01:30.803Z,102215.13
2024-01-20T01:04:03.031Z,102207.84
2024-01-20T01:06:35.352Z,102219.41
2024-01-20T01:09:07.532Z,102219.50
2024-01-20T01:11:40.071Z,102220.31
2024-01-20T01:14:12.366Z,102226.56
2024-01-20T01:16:44.585Z,102223.47
2024-01-20T01:19:17.184Z,102227.97
2024-01-20T01:21:49.381Z,102233.50
2024-01-20T01:24:22.544Z,102230.56
2024-01-20T01:26:54.759Z,102221.78
2024-01-20T01:29:27.143Z,102235.13
2024-01-20T01:31:59.645Z,102239.34
2024-01-20T01:34:31.875Z,102234.22
2024-01-20T01:37:04.134Z,102241.38
2024-01-20T01:39:36.308Z,102246.25
2024-01-20T01:42:08.891Z,102252.44
2024-01-20T01:44:41.138Z,102249.34
2024-01-20T01:47:13.556Z,102252.81
2024-01-20T01:49:45.750Z,102257.84
2024-01-20T01:52:20.033Z,102259.00
2024-01-20T01:54:53.254Z,102257.38
2024-01-20T01:57:27.320Z,102264.78
2024-01-20T02:00:00.335Z,102257.75
2024-01-20T02:02:32.660Z,102259.88
2024-01-20T02:05:05.181Z,102256.06
2024-01-20T02:07:39.460Z,102260.34
2024-01-20T02:10:12.831Z,102259.28
2024-01-20T02:12:45.099Z,102261.66
2024-01-20T02:15:18.811Z,102260.75
2024-01-20T02:17:56.260Z,102254.56
2024-01-20T02:20:28.689Z,102259.34
2024-01-20T02:23:00.893Z,102261.25
2024-01-20T02:25:33.054Z,102266.00
2024-01-20T02:28:05.470Z,102265.94
2024-01-20T02:30:37.608Z,102263.72
2024-01-20T02:33:09.947Z,102271.78
2024-01-20T02:35:42.196Z,102271.25
2024-01-20T02:38:14.378Z,102270.75
2024-01-20T02:40:46.536Z,102284.06
2024-01-20T02:43:18.668Z,102277.38
2024-01-20T02:45:50.802Z,102277.25
2024-01-20T02:48:24.565Z,102277.00
2024-01-20T02:50:56.800Z,102282.06
2024-01-20T02:53:29.523Z,102283.56
2024-01-20T02:56:01.683Z,102285.69
2024-01-20T02:58:33.787Z,102288.59
2024-01-20T03:01:08.347Z,102282.06
2024-01-20T03:03:40.628Z,102288.34
2024-01-20T03:06:13.305Z,102288.84
2024-01-20T03:08:45.439Z,102279.66
2024-01-20T03:11:17.813Z,102290.69
2024-01-20T03:13:49.919Z,102293.59
2024-01-20T03:16:22.209Z,102290.44
2024-01-20T03:18:54.382Z,102292.13
2024-01-20T03:21:26.626Z,102296.53
2024-01-20T03:23:59.012Z,102295.28
2024-01-20T03:26:31.303Z,102290.69
2024-01-20T03:29:03.876Z,102287.84
2024-01-20T03:31:36.012Z,102291.22
2024-01-20T03:34:08.196Z,102305.75
2024-01-20T03:36:40.623Z,102298.75
2024-01-20T03:39:12.946Z,102296.06
2024-01-20T03:41:45.605Z,102296.75
2024-01-20T03:44:17.765Z,102303.00
2024-01-20T03:46:49.917Z,102303.75
2024-01-20T03:49:22.170Z,102300.44
2024-01-20T03:51:54.507Z,102304.63
2024-01-20T03:54:26.732Z,102309.13
2024-01-20T03:56:59.025Z,102315.03
2024-01-20T03:59:31.255Z,102299.31
2024-01-20T04:02:03.461Z,102315.75
2024-01-20T04:04:38.925Z,102318.06
2024-01-20T04:07:11.839Z,102327.94
2024-01-20T04:09:44.086Z,102324.63
2024-01-20T04:12:16.249Z,102329.84
2024-01-20T04:14:48.418Z,102330.38
2024-01-20T04:17:20.601Z,102327.13
2024-01-20T04:19:52.707Z,102330.34
2024-01-20T04:22:25.000Z,102338.63
2024-01-20T04:24:57.121Z,102333.41
2024-01-20T04:27:29.406Z,102342.19
2024-01-20T04:30:01.580Z,102334.31
2024-01-20T04:32:33.792Z,102340.34
2024-01-20T04:35:07.259Z,102346.06
2024-01-20T04:37:40.516Z,102351.63
2024-01-20T04:40:12.773Z,102343.97
2024-01-20T04:42:44.901Z,102349.69
2024-01-20T04:45:17.162Z,102347.28
2024-01-20T04:47:49.346Z,102348.97
2024-01-20T04:50:21.502Z,102350.81
2024-01-20T04:52:53.653Z,102352.59
2024-01-20T04:55:25.777Z,102362.50
2024-01-20T04:57:58.009Z,102361.03
2024-01-20T05:00:30.221Z,102360.63
2024-01-20T05:03:02.652Z,102373.03
2024-01-20T05:05:34.914Z,102372.41
2024-01-20T05:08:07.264Z,102374.25
2024-01-20T05:10:39.328Z,102382.69
2024-01-20T05:13:11.429Z,102380.91
2024-01-20T05:15:43.604Z,102391.22
2024-01-20T05:18:15.938Z,102383.66
2024-01-20T05:20:48.177Z,102385.28
2024-01-20T05:23:20.380Z,102399.13
2024-01-20T05:25:52.458Z,102389.78
2024-01-20T05:28:24.548Z,102397.53
2024-01-20T05:30:56.662Z,102397.53
2024-01-20T05:33:28.867Z,102403.75
2024-01-20T05:36:01.119Z,102393.28
2024-01-20T05:38:33.245Z,102399.75
2024-01-20T05:41:05.421Z,102396.00
2024-01-20T05:43:37.552Z,102401.16
2024-01-20T05:46:09.659Z,102401.03
2024-01-20T05:48:41.845Z,102404.25
2024-01-20T05:51:14.498Z,102419.63
2024-01-20T05:53:47.363Z,102413.84
2024-01-20T05:56:21.700Z,102424.19
2024-01-20T05:58:54.215Z,102417.06
2024-01-20T06:01:26.333Z,102417.50
2024-01-20T06:03:58.714Z,102418.78
2024-01-20T06:06:31.120Z,102415.91
2024-01-20T06:09:04.090Z,102422.16
2024-01-20T06:11:36.212Z,102417.78
2024-01-20T06:14:09.027Z,102427.19
2024-01-20T06:16:42.715Z,102428.22
2024-01-20T06:19:15.548Z,102427.91
2024-01-20T06:21:47.723Z,102440.56
2024-01-20T06:24:19.869Z,102430.97
2024-01-20T06:26:52.095Z,102428.63
2024-01-20T06:29:24.199Z,102438.16
2024-01-20T06:31:56.320Z,102453.91
2024-01-20T06:34:28.747Z,102455.16
2024-01-20T06:37:01.019Z,102449.81
2024-01-20T06:39:33.208Z,102441.47
2024-01-20T06:42:05.719Z,102448.50
2024-01-20T06:44:37.817Z,102449.56
2024-01-20T06:47:09.981Z,102460.50
2024-01-20T06:49:42.634Z,102452.31
2024-01-20T06:52:18.120Z,102461.19
2024-01-20T06:54:50.473Z,102470.44
2024-01-20T06:57:22.572Z,102469.81
2024-01-20T06:59:55.585Z,102480.03
2024-01-20T07:02:31.617Z,102474.88
2024-01-20T07:05:06.150Z,102474.25
2024-01-20T07:07:39.631Z,102481.53
2024-01-20T07:10:12.577Z,102478.53
2024-01-20T07:12:44.694Z,102488.00
2024-01-20T07:15:16.954Z,102485.00
2024-01-20T07:17:49.143Z,102482.97
2024-01-20T07:20:21.674Z,102488.59
2024-01-20T07:22:53.776Z,102491.22
2024-01-20T07:25:25.986Z,102502.19
2024-01-20T07:27:58.120Z,102500.47
2024-01-20T07:30:30.289Z,102508.38
2024-01-20T07:33:02.510Z,102501.19
2024-01-20T07:35:34.859Z,102511.66
2024-01-20T07:38:06.951Z,102503.56
2024-01-20T07:40:39.116Z,102498.59
2024-01-20T07:43:11.394Z,102498.88
2024-01-20T07:45:43.667Z,102504.91
2024-01-20T07:48:16.562Z,102505.00
2024-01-20T07:50:49.690Z,102499.41
2024-01-20T07:53:21.788Z,102507.75
2024-01-20T07:55:54.027Z,102515.56
2024-01-20T07:58:26.335Z,102512.03
2024-01-20T08:00:58.593Z,102515.41
2024-01-20T08:03:30.745Z,102513.34
2024-01-20T08:06:03.677Z,102529.16
2024-01-20T08:08:35.885Z,102527.38
2024-01-20T08:11:08.015Z,102539.09
2024-01-20T08:13:40.127Z,102537.97
2024-01-20T08:16:12.218Z,102541.00
2024-01-20T08:18:44.473Z,102544.28
2024-01-20T08:21:20.634Z,102552.19
2024-01-20T08:23:52.905Z,102549.00
2024-01-20T08:26:25.111Z,102542.84
2024-01-20T08:28:57.473Z,102553.25
2024-01-20T08:31:29.768Z,102555.47
2024-01-20T08:34:04.082Z,102558.41
2024-01-20T08:36:36.354Z,102557.22
2024-01-20T08:39:08.502Z,102561.59
2024-01-20T08:41:40.612Z,102562.66
2024-01-20T08:44:12.793Z,102563.56
2024-01-20T08:46:46.741Z,102562.22
2024-01-20T08:49:19.031Z,102562.84
2024-01-20T08:51:51.228Z,102579.59
2024-01-20T08:54:23.331Z,102573.00
2024-01-20T08:56:55.465Z,102592.13
2024-01-20T08:59:27.585Z,102589.28
2024-01-20T09:01:59.696Z,102581.97
2024-01-20T09:04:31.751Z,102581.69
2024-01-20T09:07:04.149Z,102569.06
2024-01-20T09:09:36.345Z,102583.53
2024-01-20T09:12:08.961Z,102578.91
2024-01-20T09:14:41.261Z,102583.81
2024-01-20T09:17:13.407Z,102590.41
2024-01-20T09:19:46.159Z,102593.81
2024-01-20T09:22:18.995Z,102597.97
2024-01-20T09:24:51.170Z,102601.34
2024-01-20T09:27:24.887Z,102601.72
2024-01-20T09:29:57.898Z,102606.78
2024-01-20T09:32:32.350Z,102603.38
2024-01-20T09:35:04.891Z,102616.09
2024-01-20T09:37:40.239Z,102615.03
2024-01-20T09:40:13.165Z,102622.88
2024-01-20T09:42:45.687Z,102619.31
2024-01-20T09:45:18.098Z,102629.44
2024-01-20T09:47:50.518Z,102631.94
2024-01-20T09:50:22.704Z,102629.97
2024-01-20T09:52:59.698Z,102640.03
2024-01-20T09:55:31.843Z,102637.41
2024-01-20T09:58:05.583Z,102632.84
2024-01-20T10:00:40.180Z,102640.31
2024-01-20T10:03:13.853Z,102642.44
2024-01-20T10:05:46.095Z,102640.97
2024-01-20T10:08:18.253Z,102648.16
2024-01-20T10:10:50.596Z,102642.25
2024-01-20T10:13:22.720Z,102644.38
2024-01-20T10:15:55.610Z,102638.06
2024-01-20T10:18:28.919Z,102640.25
2024-01-20T10:21:07.359Z,102641.44
2024-01-20T10:23:40.237Z,102634.81
2024-01-20T10:26:12.290Z,102642.88
2024-01-20T10:28:45.222Z,102645.72
2024-01-20T10:31:17.330Z,102647.31
2024-01-20T10:33:52.647Z,102655.38
2024-01-20T10:36:26.146Z,102650.28
2024-01-20T10:39:06.004Z,102650.28
2024-01-20T10:41:43.272Z,102645.66
2024-01-20T10:44:17.878Z,102651.56
2024-01-20T10:46:53.967Z,102649.84
2024-01-20T10:49:26.316Z,102656.28
2024-01-20T10:51:59.123Z,102657.75
2024-01-20T10:54:32.222Z,102651.59
2024-01-20T10:57:04.886Z,102662.06
2024-01-20T10:59:43.089Z,102659.53
2024-01-20T11:02:15.814Z,102660.09
2024-01-20T11:04:48.002Z,102660.09
2024-01-20T11:07:24.820Z,102653.63
2024-01-20T11:10:01.274Z,102656.22
2024-01-20T11:12:33.612Z,102656.53
2024-01-20T11:15:12.869Z,102653.75
2024-01-20T11:17:45.104Z,102671.50
2024-01-20T11:20:17.333Z,102669.09
2024-01-20T11:22:49.556Z,102666.47
2024-01-20T11:25:24.504Z,102663.34
2024-01-20T11:27:59.056Z,102665.13
2024-01-20T11:30:35.967Z,102658.91
2024-01-20T11:33:13.006Z,102668.69
2024-01-20T11:35:45.274Z,102659.53
2024-01-20T11:38:17.908Z,102663.97
2024-01-20T11:41:03.455Z,102665.50
2024-01-20T11:43:36.139Z,102666.72
2024-01-20T11:46:08.300Z,102662.69
2024-01-20T11:48:40.671Z,102670.28
2024-01-20T11:51:13.119Z,102665.34
2024-01-20T11:53:46.968Z,102661.56
2024-01-20T11:56:19.401Z,102668.47
2024-01-20T11:58:51.577Z,102674.13
2024-01-20T12:01:23.990Z,102671.53
2024-01-20T12:03:56.359Z,102661.59
2024-01-20T12:06:28.685Z,102671.59
2024-01-20T12:09:02.050Z,102674.25
2024-01-20T12:11:35.553Z,102668.47
2024-01-20T12:14:09.820Z,102658.53
2024-01-20T12:16:42.218Z,102661.53
2024-01-20T12:19:14.484Z,102657.91
2024-01-20T12:21:47.264Z,102657.66
2024-01-20T12:24:19.747Z,102647.00
2024-01-20T12:26:51.973Z,102647.78
2024-01-20T12:29:24.232Z,102642.66
2024-01-20T12:32:00.502Z,102654.75
2024-01-20T12:34:32.712Z,102645.75
2024-01-20T12:37:06.219Z,102649.44
2024-01-20T12:39:39.655Z,102647.91
2024-01-20T12:42:11.898Z,102649.66
2024-01-20T12:44:44.221Z,102640.84
2024-01-20T12:47:16.403Z,102641.75
2024-01-20T12:49:48.661Z,102645.00
2024-01-20T12:52:22.651Z,102647.63
2024-01-20T12:54:55.740Z,102654.69
2024-01-20T12:57:27.989Z,102641.94
2024-01-20T13:00:00.295Z,102649.03
2024-01-20T13:02:32.868Z,102649.03
2024-01-20T13:05:05.815Z,102636.56
2024-01-20T13:07:37.981Z,102643.78
2024-01-20T13:10:10.545Z,102652.88
2024-01-20T13:12:42.683Z,102648.69
2024-01-20T13:15:15.204Z,102649.72
2024-01-20T13:17:47.662Z,102641.59
2024-01-20T13:20:19.807Z,102649.78
2024-01-20T13:22:51.933Z,102657.53
2024-01-20T13:25:26.076Z,102651.41
2024-01-20T13:27:58.823Z,102659.28
2024-01-20T13:30:31.129Z,102660.66
2024-01-20T13:33:03.557Z,102658.69
2024-01-20T13:35:35.743Z,102660.56
2024-01-20T13:38:07.946Z,102665.38
2024-01-20T13:40:41.441Z,102670.94
2024-01-20T13:43:13.751Z,102661.63
2024-01-20T13:45:47.763Z,102671.84
2024-01-20T13:48:20.340Z,102661.47
2024-01-20T13:50:52.583Z,102665.63
2024-01-20T13:56:16.349Z,102659.16
2024-01-20T13:58:48.466Z,102660.19
2024-01-20T14:01:24.048Z,102669.28
2024-01-20T14:03:56.398Z,102667.69
2024-01-20T14:06:28.679Z,102671.38
2024-01-20T14:09:00.949Z,102678.28
2024-01-20T14:11:34.501Z,102677.75
2024-01-20T14:14:06.717Z,102686.63
2024-01-20T14:16:38.895Z,102687.41
2024-01-20T14:19:11.070Z,102694.84
2024-01-20T14:21:44.678Z,102698.81
2024-01-20T14:24:17.208Z,102697.59
2024-01-20T14:26:49.856Z,102697.13
2024-01-20T14:29:22.023Z,102698.66
2024-01-20T14:31:54.865Z,102703.81
2024-01-20T14:34:27.492Z,102703.94
2024-01-20T14:36:59.905Z,102705.38
2024-01-20T14:39:32.911Z,102708.03
2024-01-20T14:42:05.399Z,102708.03
2024-01-20T14:44:37.588Z,102706.66
2024-01-20T14:47:10.411Z,102711.41
2024-01-20T14:49:42.678Z,102707.22
2024-01-20T14:52:15.368Z,102709.56
2024-01-20T14:54:48.145Z,102712.97
2024-01-20T14:57:20.864Z,102718.84
2024-01-20T14:59:53.693Z,102710.47
2024-01-20T15:02:25.845Z,102717.78
2024-01-20T15:04:57.975Z,102723.09
2024-01-20T15:07:34.676Z,102729.88
2024-01-20T15:10:08.361Z,102723.13
2024-01-20T15:12:40.706Z,102738.25
2024-01-20T15:15:12.951Z,102731.16
2024-01-20T15:17:45.204Z,102732.41
2024-01-20T15:20:20.298Z,102733.88
2024-01-20T15:22:58.103Z,102733.22
2024-01-20T15:25:30.653Z,102740.81
2024-01-20T15:28:03.256Z,102753.06
2024-01-20T15:30:35.516Z,102752.31
2024-01-20T15:33:10.391Z,102757.72
2024-01-20T15:35:42.814Z,102752.50
2024-01-20T15:38:15.652Z,102763.69
2024-01-20T15:40:48.482Z,102756.59
2024-01-20T15:43:22.360Z,102752.72
2024-01-20T15:45:54.585Z,102757.91
2024-01-20T15:48:26.959Z,102765.69
2024-01-20T15:50:59.271Z,102760.69
2024-01-20T15:53:31.681Z,102762.75
2024-01-20T15:56:04.460Z,102758.94
2024-01-20T15:58:36.969Z,102766.03
2024-01-20T16:01:09.711Z,102763.72
2024-01-20T16:03:42.268Z,102767.00
2024-01-20T16:06:14.786Z,102773.59
2024-01-20T16:08:47.562Z,102766.31
2024-01-20T16:11:19.837Z,102771.72
2024-01-20T16:13:52.006Z,102763.72
2024-01-20T16:16:24.549Z,102761.44
2024-01-20T16:18:57.148Z,102761.09
2024-01-20T16:21:29.813Z,102759.31
2024-01-20T16:24:02.391Z,102761.09
2024-01-20T16:26:34.853Z,102754.75
2024-01-20T16:29:07.146Z,102759.03
2024-01-20T16:31:42.512Z,102763.13
2024-01-20T16:34:16.016Z,102751.09
2024-01-20T16:36:52.721Z,102755.03
2024-01-20T16:39:25.173Z,102753.16
2024-01-20T16:41:57.345Z,102754.31
2024-01-20T16:44:29.457Z,102751.03
2024-01-20T16:47:02.430Z,102751.81
2024-01-20T16:49:34.782Z,102742.56
2024-01-20T16:52:07.608Z,102753.06
2024-01-20T16:54:39.973Z,102748.63
2024-01-20T16:57:12.609Z,102742.47
2024-01-20T16:59:44.847Z,102747.97
2024-01-20T17:02:17.022Z,102753.44
2024-01-20T17:04:50.130Z,102749.38
2024-01-20T17:07:22.595Z,102749.75
2024-01-20T17:09:54.759Z,102741.28
2024-01-20T17:12:27.005Z,102737.28
2024-01-20T17:14:59.284Z,102743.25
2024-01-20T17:17:31.412Z,102743.25
2024-01-20T17:20:05.289Z,102734.34
2024-01-20T17:22:37.770Z,102740.41
2024-01-20T17:25:11.204Z,102737.63
2024-01-20T17:27:43.506Z,102737.28
2024-01-20T17:30:16.926Z,102740.03
2024-01-20T17:32:49.195Z,102741.56
2024-01-20T17:35:21.808Z,102744.66
2024-01-20T17:37:57.031Z,102741.63
2024-01-20T17:40:29.248Z,102748.22
2024-01-20T17:43:01.408Z,102743.41
2024-01-20T17:45:33.607Z,102748.19
2024-01-20T17:48:06.618Z,102752.66
2024-01-20T17:50:38.825Z,102755.03
2024-01-20T17:53:11.749Z,102754.69
2024-01-20T17:55:44.224Z,102760.81
2024-01-20T17:58:16.327Z,102761.09
2024-01-20T18:00:48.611Z,102756.91
2024-01-20T18:03:21.357Z,102756.69
2024-01-20T18:05:54.025Z,102754.50
2024-01-20T18:08:28.015Z,102759.03
2024-01-20T18:11:00.465Z,102764.25
2024-01-20T18:13:33.774Z,102759.41
2024-01-20T18:16:06.599Z,102759.16
2024-01-20T18:18:39.438Z,102756.47
2024-01-20T18:21:13.098Z,102768.56
2024-01-20T18:23:45.622Z,102770.34
2024-01-20T18:26:17.845Z,102766.63
2024-01-20T18:28:50.449Z,102770.44
2024-01-20T18:31:22.988Z,102766.34
2024-01-20T18:33:55.519Z,102761.69
2024-01-20T18:36:27.791Z,102761.13
2024-01-20T18:38:59.990Z,102763.16
2024-01-20T18:41:32.288Z,102760.59
2024-01-20T18:44:04.739Z,102771.97
2024-01-20T18:46:36.974Z,102765.47
2024-01-20T18:49:09.293Z,102775.25
2024-01-20T18:51:41.676Z,102770.78
2024-01-20T18:54:13.948Z,102764.75
2024-01-20T18:56:48.674Z,102763.75
2024-01-20T18:59:20.962Z,102763.47
2024-01-20T19:01:53.131Z,102759.13
2024-01-20T19:04:25.335Z,102761.53
2024-01-20T19:06:57.696Z,102764.03
2024-01-20T19:09:29.996Z,102755.69
2024-01-20T19:12:02.350Z,102764.34
2024-01-20T19:14:34.839Z,102755.59
2024-01-20T19:17:14.505Z,102757.66
2024-01-20T19:19:46.922Z,102755.16
2024-01-20T19:22:21.410Z,102756.66
2024-01-20T19:24:54.220Z,102757.38
2024-01-20T19:27:27.583Z,102755.69
2024-01-20T19:29:59.900Z,102747.31
2024-01-20T19:32:32.095Z,102748.31
2024-01-20T19:35:04.594Z,102743.50
2024-01-20T19:37:36.898Z,102742.97
2024-01-20T19:40:11.530Z,102744.88
2024-01-20T19:42:43.995Z,102740.25
2024-01-20T19:45:16.453Z,102741.22
2024-01-20T19:47:48.720Z,102746.56
2024-01-20T19:50:20.825Z,102736.66
2024-01-20T19:52:54.078Z,102740.94
2024-01-20T19:55:28.024Z,102744.13
2024-01-20T19:58:00.288Z,102737.28
2024-01-20T20:00:32.547Z,102735.59
2024-01-20T20:03:05.288Z,102726.25
2024-01-20T20:05:40.893Z,102726.34
2024-01-20T20:08:14.663Z,102728.66
2024-01-20T20:10:48.563Z,102722.78
2024-01-20T20:13:21.875Z,102728.84
2024-01-20T20:15:55.821Z,102726.25
2024-01-20T20:18:31.381Z,102727.94
2024-01-20T20:21:04.010Z,102713.63
2024-01-20T20:23:37.566Z,102717.72
2024-01-20T20:26:10.243Z,102718.88
2024-01-20T20:28:42.551Z,102714.06
2024-01-20T20:31:18.360Z,102711.84
2024-01-20T20:33:51.495Z,102706.69
2024-01-20T20:36:23.818Z,102714.88
2024-01-20T20:38:56.281Z,102705.06
2024-01-20T20:41:28.469Z,102716.03
2024-01-20T20:44:01.124Z,102705.38
2024-01-20T20:46:34.980Z,102712.28
2024-01-20T20:49:08.058Z,102717.28
2024-01-20T20:51:40.650Z,102712.56
2024-01-20T20:54:12.891Z,102710.78
2024-01-20T20:56:45.109Z,102708.38
2024-01-20T20:59:19.121Z,102699.03
2024-01-20T21:01:51.292Z,102702.06
2024-01-20T21:04:23.940Z,102689.16
2024-01-20T21:06:56.845Z,102684.97
2024-01-20T21:09:29.138Z,102686.94
2024-01-20T21:12:01.518Z,102682.50
2024-01-20T21:14:33.726Z,102682.59
2024-01-20T21:17:08.243Z,102681.59
2024-01-20T21:19:40.786Z,102685.63
2024-01-20T21:22:13.046Z,102680.06
2024-01-20T21:24:45.779Z,102677.75
2024-01-20T21:27:20.718Z,102673.69
2024-01-20T21:29:53.479Z,102674.47
2024-01-20T21:32:28.041Z,102668.50
2024-01-20T21:35:00.568Z,102666.44
2024-01-20T21:37:33.031Z,102663.34
2024-01-20T21:40:07.408Z,102662.09
2024-01-20T21:42:39.640Z,102671.53
2024-01-20T21:45:11.919Z,102659.88
2024-01-20T21:47:44.197Z,102667.88
2024-01-20T21:50:16.592Z,102662.88
2024-01-20T21:52:48.790Z,102661.66
2024-01-20T21:55:20.995Z,102660.63
2024-01-20T21:57:56.790Z,102659.84
2024-01-20T22:00:30.583Z,102662.25
2024-01-20T22:03:02.736Z,102663.34
2024-01-20T22:05:35.013Z,102659.78
2024-01-20T22:08:07.659Z,102651.28
2024-01-20T22:10:42.383Z,102659.38
2024-01-20T22:13:17.464Z,102662.41
2024-01-20T22:15:49.726Z,102667.88
2024-01-20T22:18:22.297Z,102656.31
2024-01-20T22:20:57.377Z,102665.91
2024-01-20T22:23:29.944Z,102663.31
2024-01-20T22:26:02.423Z,102658.16
2024-01-20T22:28:34.749Z,102651.06
2024-01-20T22:31:06.963Z,102652.34
2024-01-20T22:33:40.981Z,102647.66
2024-01-20T22:36:13.305Z,102640.41
2024-01-20T22:38:46.838Z,102641.03
2024-01-20T22:41:19.765Z,102651.47
2024-01-20T22:43:54.765Z,102649.41
2024-01-20T22:46:28.265Z,102650.81
2024-01-20T22:49:02.629Z,102649.88
2024-01-20T22:51:35.285Z,102651.38
2024-01-20T22:54:07.544Z,102647.91
2024-01-20T22:56:40.071Z,102651.56
2024-01-20T22:59:12.705Z,102660.13
2024-01-20T23:01:45.596Z,102657.53
2024-01-20T23:04:18.205Z,102653.25
2024-01-20T23:06:52.421Z,102654.16
2024-01-20T23:09:27.833Z,102649.88
2024-01-20T23:12:00.162Z,102646.66
2024-01-20T23:14:36.763Z,102648.44
2024-01-20T23:17:08.959Z,102648.78
2024-01-20T23:19:41.469Z,102647.91
2024-01-20T23:22:13.810Z,102633.28
2024-01-20T23:24:46.431Z,102639.09
2024-01-20T23:27:22.337Z,102622.06
2024-01-20T23:29:54.711Z,102630.47
2024-01-20T23:32:27.063Z,102636.38
2024-01-20T23:34:59.303Z,102633.91
2024-01-20T23:37:31.496Z,102619.75
2024-01-20T23:40:03.986Z,102615.00
2024-01-20T23:42:37.097Z,102622.06
2024-01-20T23:45:10.174Z,102617.06
2024-01-20T23:47:42.385Z,102617.34
2024-01-20T23:50:15.223Z,102609.22
2024-01-20T23:52:47.543Z,102596.41
2024-01-20T23:55:19.777Z,102592.13
2024-01-20T23:57:51.956Z,102596.84
